Time;durP1;ratioP1;P1;durP2;ratioP2;P2;SDS_P1;SDS_P2;PMS_P1;PMS_P2;Temp;Humidity;BMP_temperature;BMP_pressure;BME280_temperature;BME280_humidity;BME280_pressure;Samples;Min_cycle;Max_cycle;Signal;HPM_P1;HPM_P2
2022/09/16 00:01:46;;;;;;;5.70;2.73;;;;;;;11.24;100.00;100975.41;5060793;28;20029;-85
2022/09/16 00:04:12;;;;;;;9.27;3.30;;;;;;;11.22;100.00;100972.91;5070068;28;20032;-86
2022/09/16 00:06:37;;;;;;;6.63;3.10;;;;;;;11.23;100.00;100973.75;5049831;28;20025;-86
2022/09/16 00:09:03;;;;;;;8.60;3.20;;;;;;;11.23;100.00;100961.03;5056222;28;20496;-85
2022/09/16 00:11:33;;;;;;;6.10;3.27;;;;;;;11.23;100.00;100969.16;5055613;28;20029;-85
2022/09/16 00:13:59;;;;;;;8.50;3.20;;;;;;;11.18;100.00;100955.41;5057671;28;20037;-87
2022/09/16 00:16:26;;;;;;;6.43;3.40;;;;;;;11.22;100.00;100963.94;5069793;28;20533;-87
2022/09/16 00:18:59;;;;;;;9.40;3.33;;;;;;;11.20;100.00;100953.31;5066458;28;20461;-87
2022/09/16 00:21:25;;;;;;;7.37;3.27;;;;;;;11.11;100.00;100932.88;5054933;28;20129;-87
2022/09/16 00:23:51;;;;;;;5.17;3.20;;;;;;;11.23;100.00;100952.03;5056746;28;20487;-87
2022/09/16 00:26:17;;;;;;;7.23;3.17;;;;;;;11.28;100.00;100961.19;5053515;28;20033;-86
2022/09/16 00:28:42;;;;;;;7.40;3.37;;;;;;;11.31;100.00;100962.66;5055774;28;20021;-86
2022/09/16 00:31:07;;;;;;;7.73;3.43;;;;;;;11.31;100.00;100955.38;5066699;28;20029;-87
2022/09/16 00:33:33;;;;;;;9.93;3.20;;;;;;;11.29;100.00;100951.19;5062344;28;20078;-87
2022/09/16 00:36:18;;;;;;;7.27;3.20;;;;;;;11.35;100.00;100960.34;5070545;28;20356;-87
2022/09/16 00:38:44;;;;;;;7.80;3.20;;;;;;;11.34;100.00;100959.50;5075756;28;20032;-87
2022/09/16 00:41:17;;;;;;;7.87;3.50;;;;;;;11.31;100.00;100955.38;5057661;28;20071;-87
2022/09/16 00:44:00;;;;;;;7.83;3.20;;;;;;;11.34;100.00;100954.09;5059782;28;20372;-88
2022/09/16 00:46:32;;;;;;;7.97;3.60;;;;;;;11.36;100.00;100962.03;5054955;28;20027;-85
2022/09/16 00:49:01;;;;;;;9.30;3.37;;;;;;;11.34;100.00;100958.69;5068328;28;20067;-86
2022/09/16 00:51:28;;;;;;;8.53;3.43;;;;;;;11.30;100.00;100961.84;5065872;28;20047;-85
2022/09/16 00:53:59;;;;;;;9.40;3.70;;;;;;;11.27;100.00;100946.00;5053257;28;20033;-86
2022/09/16 00:56:27;;;;;;;8.10;3.60;;;;;;;11.30;100.00;100959.13;5054942;28;20414;-86
2022/09/16 00:59:02;;;;;;;7.90;3.70;;;;;;;11.30;100.00;100960.97;5072786;28;20028;-86
2022/09/16 01:01:29;;;;;;;8.97;3.60;;;;;;;11.25;100.00;100948.06;5062701;28;20028;-86
2022/09/16 01:04:00;;;;;;;6.17;3.57;;;;;;;11.22;100.00;100953.09;5071772;28;20468;-86
2022/09/16 01:06:27;;;;;;;8.80;4.00;;;;;;;11.21;100.00;100949.53;5066337;28;20021;-86
2022/09/16 01:08:54;;;;;;;8.80;3.47;;;;;;;11.14;100.00;100944.13;5054350;28;20044;-86
2022/09/16 01:11:19;;;;;;;10.17;3.63;;;;;;;11.15;100.00;100947.69;5072839;28;20486;-86
2022/09/16 01:13:46;;;;;;;11.20;3.50;;;;;;;11.11;100.00;100943.72;5069009;28;20032;-86
2022/09/16 01:16:24;;;;;;;11.27;3.60;;;;;;;11.10;100.00;100939.38;5054023;28;20381;-86
2022/09/16 01:19:33;;;;;;;8.43;3.60;;;;;;;11.12;100.00;100934.56;5063430;28;20031;-86
2022/09/16 01:22:50;;;;;;;11.00;3.93;;;;;;;11.07;100.00;100942.47;5050824;28;20032;-86
2022/09/16 01:25:33;;;;;;;8.40;3.83;;;;;;;11.02;100.00;100940.44;5045167;28;20048;-86
2022/09/16 01:28:04;;;;;;;9.13;3.77;;;;;;;10.97;100.00;100943.78;5063137;28;20037;-86
2022/09/16 01:30:45;;;;;;;10.07;3.77;;;;;;;10.98;100.00;100937.28;5054180;28;20017;-86
2022/09/16 01:33:52;;;;;;;12.97;4.50;;;;;;;10.96;100.00;100928.56;5061353;28;20045;-87
2022/09/16 01:36:32;;;;;;;10.00;4.23;;;;;;;10.89;100.00;100933.16;5067983;28;20044;-87
2022/09/16 01:39:03;;;;;;;10.30;4.13;;;;;;;10.93;100.00;100934.41;5056666;28;20032;-87
2022/09/16 01:41:53;;;;;;;11.40;4.43;;;;;;;10.87;100.00;100935.25;5061782;28;20464;-87
2022/09/16 01:44:33;;;;;;;11.73;4.13;;;;;;;10.83;100.00;100928.56;5067347;28;20028;-88
2022/09/16 01:47:09;;;;;;;7.37;4.13;;;;;;;10.86;100.00;100936.28;5067203;28;20364;-88
2022/09/16 01:49:42;;;;;;;11.13;4.00;;;;;;;10.78;100.00;100920.25;5065556;28;20031;-87
2022/09/16 01:52:27;;;;;;;14.90;4.37;;;;;;;10.81;100.00;100931.50;5073316;28;20020;-87
2022/09/16 01:55:00;;;;;;;10.30;4.27;;;;;;;10.70;100.00;100926.72;5065417;28;20032;-85
2022/09/16 01:57:33;;;;;;;8.57;4.40;;;;;;;10.75;100.00;100936.94;5059463;28;20071;-87
2022/09/16 02:00:06;;;;;;;12.40;4.60;;;;;;;10.69;100.00;100935.06;5073407;28;20060;-87
2022/09/16 02:02:38;;;;;;;12.00;4.82;;;;;;;10.66;100.00;100940.91;5066699;28;20029;-87
2022/09/16 02:05:08;;;;;;;9.87;4.57;;;;;;;10.54;100.00;100938.84;5060673;28;20031;-86
2022/09/16 02:07:38;;;;;;;10.50;4.60;;;;;;;10.53;100.00;100931.75;5053211;28;20028;-87
2022/09/16 02:10:17;;;;;;;11.50;4.70;;;;;;;10.50;100.00;100931.31;5054082;28;20029;-86
2022/09/16 02:12:45;;;;;;;13.13;4.60;;;;;;;10.52;100.00;100949.03;5054103;28;20040;-86
2022/09/16 02:15:17;;;;;;;10.23;4.60;;;;;;;10.45;100.00;100934.66;5061981;28;20080;-86
2022/09/16 02:17:48;;;;;;;11.67;4.90;;;;;;;10.52;100.00;100948.22;5053112;28;20066;-86
2022/09/16 02:20:19;;;;;;;8.30;4.37;;;;;;;10.52;100.00;100937.38;5053427;28;20068;-86
2022/09/16 02:22:52;;;;;;;11.27;4.67;;;;;;;10.52;100.00;100945.50;5064789;28;20474;-89
2022/09/16 02:25:18;;;;;;;11.00;4.87;;;;;;;10.49;100.00;100944.03;5060577;28;20074;-85
2022/09/16 02:27:46;;;;;;;9.30;4.83;;;;;;;10.45;100.00;100940.09;5073668;28;20029;-85
2022/09/16 02:30:16;;;;;;;10.43;5.00;;;;;;;10.48;100.00;100947.78;5073836;28;20067;-84
2022/09/16 02:32:49;;;;;;;11.73;5.10;;;;;;;10.45;100.00;100946.31;5066812;28;20108;-85
2022/09/16 02:35:18;;;;;;;11.00;4.83;;;;;;;10.42;100.00;100935.09;5057237;28;20104;-85
2022/09/16 02:37:51;;;;;;;11.90;4.70;;;;;;;10.37;100.00;100934.88;5056506;28;20032;-86
2022/09/16 02:40:33;;;;;;;11.55;4.60;;;;;;;10.45;100.00;100945.50;5056442;28;20024;-86
2022/09/16 02:42:59;;;;;;;8.87;4.37;;;;;;;10.43;100.00;100944.88;5034511;28;20025;-86
2022/09/16 02:45:39;;;;;;;9.07;4.60;;;;;;;10.45;100.00;100942.78;5052421;28;20044;-86
2022/09/16 02:48:46;;;;;;;10.23;4.57;;;;;;;10.49;100.00;100935.09;5063770;28;20078;-85
2022/09/16 02:51:54;;;;;;;10.00;4.67;;;;;;;10.40;100.00;100926.31;5031789;28;20494;-85
2022/09/16 02:54:32;;;;;;;11.23;4.17;;;;;;;10.45;100.00;100935.50;5060717;28;20033;-85
2022/09/16 02:56:58;;;;;;;7.80;4.03;;;;;;;10.45;100.00;100935.50;5067300;28;20047;-85
2022/09/16 02:59:24;;;;;;;11.83;3.90;;;;;;;10.46;100.00;100933.63;5056935;28;20127;-84
2022/09/16 03:01:49;;;;;;;10.70;3.97;;;;;;;10.44;100.00;100922.16;5041835;28;20071;-85
2022/09/16 03:04:17;;;;;;;6.40;3.20;;;;;;;10.54;100.00;100930.72;5052162;28;20032;-85
2022/09/16 03:06:43;;;;;;;9.77;3.33;;;;;;;10.57;100.00;100927.56;5041646;28;20403;-85
2022/09/16 03:09:11;;;;;;;9.93;3.90;;;;;;;10.67;100.00;100940.69;5065983;28;20043;-85
2022/09/16 03:11:58;;;;;;;8.73;3.23;;;;;;;10.73;100.00;100933.59;5074996;28;20040;-85
2022/09/16 03:14:36;;;;;;;8.07;3.13;;;;;;;10.78;100.00;100933.78;5075789;28;20047;-84
2022/09/16 03:17:08;;;;;;;8.67;2.70;;;;;;;10.87;100.00;100932.53;5076020;28;20142;-84
2022/09/16 03:19:43;;;;;;;6.87;2.50;;;;;;;10.89;100.00;100922.31;5075566;28;20056;-85
2022/09/16 03:22:22;;;;;;;8.37;2.70;;;;;;;11.00;100.00;100925.41;5057109;28;20029;-85
2022/09/16 03:25:07;;;;;;;8.93;2.40;;;;;;;11.05;100.00;100922.91;5068412;28;20089;-85
2022/09/16 03:27:49;;;;;;;8.00;2.00;;;;;;;11.02;100.00;100920.63;5064397;28;20036;-84
2022/09/16 03:30:15;;;;;;;6.27;1.90;;;;;;;11.10;100.00;100925.81;5058749;28;20040;-84
2022/09/16 03:32:51;;;;;;;5.77;2.20;;;;;;;11.05;100.00;100923.72;5060189;28;20029;-85
2022/09/16 03:35:33;;;;;;;6.13;2.03;;;;;;;11.05;100.00;100928.31;5070927;28;20082;-85
2022/09/16 03:38:01;;;;;;;6.70;2.30;;;;;;;10.96;100.00;100919.56;5067897;28;20075;-84
2022/09/16 03:40:28;;;;;;;5.13;2.13;;;;;;;10.94;100.00;100917.06;5056859;28;20029;-85
2022/09/16 03:42:56;;;;;;;5.87;2.30;;;;;;;10.86;100.00;100911.88;5064438;28;20029;-86
2022/09/16 03:45:22;;;;;;;6.83;2.27;;;;;;;10.89;100.00;100919.63;5066319;28;20025;-85
2022/09/16 03:47:49;;;;;;;3.77;2.30;;;;;;;10.84;100.00;100927.53;5063338;28;20106;-84
2022/09/16 03:50:15;;;;;;;4.77;2.50;;;;;;;10.81;100.00;100927.94;5074938;28;20037;-84
2022/09/16 03:52:41;;;;;;;7.90;2.30;;;;;;;10.74;100.00;100921.72;5065510;28;20372;-84
2022/09/16 03:55:07;;;;;;;6.73;2.40;;;;;;;10.77;100.00;100926.69;5037790;28;20115;-84
2022/09/16 03:57:33;;;;;;;4.67;2.20;;;;;;;10.72;100.00;100918.41;5056241;28;20108;-84
2022/09/16 03:59:58;;;;;;;6.93;2.23;;;;;;;10.68;100.00;100906.31;5055577;28;20144;-84
2022/09/16 04:02:24;;;;;;;6.87;1.90;;;;;;;10.74;100.00;100921.72;5054364;28;20108;-89
2022/09/16 04:04:50;;;;;;;4.40;2.03;;;;;;;10.75;100.00;100921.50;5055038;28;20075;-87
2022/09/16 04:07:15;;;;;;;5.23;2.10;;;;;;;10.71;100.00;100916.72;5057918;28;20029;-87
2022/09/16 04:09:41;;;;;;;7.13;2.00;;;;;;;10.74;100.00;100927.13;5058361;28;20032;-87
2022/09/16 04:12:07;;;;;;;4.30;1.93;;;;;;;10.75;100.00;100928.81;5065372;28;20100;-86
2022/09/16 04:14:33;;;;;;;5.23;2.10;;;;;;;10.70;100.00;100928.59;5055964;28;20130;-87
2022/09/16 04:16:59;;;;;;;5.87;1.90;;;;;;;10.72;100.00;100934.66;5054445;28;20064;-86
2022/09/16 04:19:24;;;;;;;4.63;1.60;;;;;;;10.68;100.00;100919.88;5075498;28;20037;-86
2022/09/16 04:21:50;;;;;;;5.57;1.80;;;;;;;10.70;100.00;100926.72;5075829;28;20107;-87
2022/09/16 04:24:16;;;;;;;4.27;1.80;;;;;;;10.72;100.00;100931.94;5064370;28;20471;-87
2022/09/16 04:26:42;;;;;;;6.13;1.60;;;;;;;10.67;100.00;100929.84;5066314;28;20060;-87
2022/09/16 04:29:07;;;;;;;4.50;1.90;;;;;;;10.66;100.00;100938.19;5071604;28;20043;-86
2022/09/16 04:31:33;;;;;;;3.47;1.67;;;;;;;10.63;100.00;100940.28;5070718;28;20107;-87
2022/09/16 04:34:00;;;;;;;2.27;1.53;;;;;;;10.63;100.00;100942.16;5068521;28;20028;-86
2022/09/16 04:36:26;;;;;;;6.23;2.07;;;;;;;10.66;100.00;100940.91;5074617;28;20020;-86
2022/09/16 04:38:51;;;;;;;4.80;1.70;;;;;;;10.67;100.00;100942.56;5061552;28;20032;-87
2022/09/16 04:41:23;;;;;;;4.83;1.70;;;;;;;10.69;100.00;100940.47;5054903;28;20032;-87
2022/09/16 04:43:57;;;;;;;8.17;2.07;;;;;;;10.72;100.00;100946.31;5050939;28;20036;-86
2022/09/16 04:46:24;;;;;;;3.92;1.88;;;;;;;10.71;100.00;100922.13;5072922;28;20032;-86
2022/09/16 04:48:51;;;;;;;5.40;2.00;;;;;;;10.74;100.00;100922.56;5073345;28;20036;-86
2022/09/16 04:51:18;;;;;;;7.67;2.20;;;;;;;10.76;100.00;100925.06;5069373;28;20052;-87
2022/09/16 04:53:44;;;;;;;3.73;1.80;;;;;;;10.72;100.00;100923.81;5053146;28;20036;-86
2022/09/16 04:56:14;;;;;;;5.43;2.40;;;;;;;10.76;100.00;100909.63;5045573;28;20032;-87
2022/09/16 04:58:41;;;;;;;5.77;2.03;;;;;;;10.81;100.00;100915.25;5064790;28;20051;-87
2022/09/16 05:01:11;;;;;;;8.27;2.03;;;;;;;10.73;100.00;100914.63;5055136;28;20071;-87
2022/09/16 05:03:41;;;;;;;6.17;2.13;;;;;;;10.75;100.00;100923.38;5071285;28;20031;-86
2022/09/16 05:06:12;;;;;;;4.63;1.80;;;;;;;10.75;100.00;100931.50;5071130;28;20377;-85
2022/09/16 05:08:38;;;;;;;4.83;1.87;;;;;;;10.71;100.00;100935.69;5056252;28;20021;-87
2022/09/16 05:11:09;;;;;;;4.30;1.90;;;;;;;10.70;100.00;100929.41;5053658;28;20037;-88
2022/09/16 05:13:34;;;;;;;4.00;1.60;;;;;;;10.69;100.00;100927.78;5067530;28;20419;-87
2022/09/16 05:16:06;;;;;;;6.83;1.70;;;;;;;10.57;100.00;100910.50;5014645;28;20034;-87
2022/09/16 05:18:31;;;;;;;6.40;1.90;;;;;;;10.69;100.00;100935.06;5017984;28;20032;-86
2022/09/16 05:20:59;;;;;;;6.23;1.80;;;;;;;10.67;100.00;100927.13;5016807;28;20030;-86
2022/09/16 05:23:24;;;;;;;7.60;1.87;;;;;;;10.70;100.00;100932.13;5020906;28;20057;-86
2022/09/16 05:25:50;;;;;;;7.03;1.70;;;;;;;10.67;100.00;100931.75;5025727;28;20107;-86
2022/09/16 05:28:15;;;;;;;2.67;1.50;;;;;;;10.63;100.00;100936.72;5015814;28;20037;-86
2022/09/16 05:30:41;;;;;;;4.67;1.50;;;;;;;10.70;100.00;100920.47;5029782;28;20041;-87
2022/09/16 05:33:06;;;;;;;5.10;1.77;;;;;;;10.69;100.00;100908.81;5029139;28;20033;-87
2022/09/16 05:35:32;;;;;;;2.97;1.30;;;;;;;10.71;100.00;100922.13;5029556;28;20028;-87
2022/09/16 05:37:57;;;;;;;4.90;1.70;;;;;;;10.71;100.00;100924.84;5030237;28;20114;-87
2022/09/16 05:40:23;;;;;;;3.93;1.10;;;;;;;10.70;100.00;100923.19;5013559;28;20088;-88
2022/09/16 05:42:48;;;;;;;3.83;1.20;;;;;;;10.69;100.00;100929.63;5014608;28;20474;-87
2022/09/16 05:45:14;;;;;;;6.37;1.50;;;;;;;10.71;100.00;100933.81;5024754;28;20509;-87
2022/09/16 05:47:39;;;;;;;3.77;1.40;;;;;;;10.69;100.00;100941.31;5021613;28;20029;-87
2022/09/16 05:50:05;;;;;;;4.00;1.40;;;;;;;10.69;100.00;100943.19;5014336;28;20041;-89
2022/09/16 05:52:31;;;;;;;2.17;1.30;;;;;;;10.67;100.00;100937.97;5032578;28;20056;-88
2022/09/16 05:54:56;;;;;;;7.40;1.60;;;;;;;10.68;100.00;100942.38;5032979;28;20481;-88
2022/09/16 05:57:22;;;;;;;1.80;1.10;;;;;;;10.65;100.00;100940.09;5034316;28;20374;-89
2022/09/16 05:59:48;;;;;;;2.77;1.40;;;;;;;10.64;100.00;100946.53;5016593;28;20030;-89
2022/09/16 06:02:13;;;;;;;5.10;1.80;;;;;;;10.66;100.00;100946.31;5034428;28;20033;-89
2022/09/16 06:04:38;;;;;;;3.90;1.30;;;;;;;10.71;100.00;100954.66;5025402;28;20068;-89
2022/09/16 06:07:06;;;;;;;2.87;1.40;;;;;;;10.66;100.00;100947.16;5031386;28;20052;-87
2022/09/16 06:09:31;;;;;;;3.33;1.43;;;;;;;10.72;100.00;100956.34;5009580;28;20355;-88
2022/09/16 06:11:57;;;;;;;5.77;1.30;;;;;;;10.72;100.00;100962.56;5008276;28;20053;-88
2022/09/16 06:14:22;;;;;;;4.67;1.50;;;;;;;10.74;100.00;100965.94;5020456;28;20084;-86
2022/09/16 06:16:47;;;;;;;5.03;1.50;;;;;;;10.74;100.00;100965.94;5049864;28;20547;-88
2022/09/16 06:19:16;;;;;;;3.63;1.50;;;;;;;10.72;100.00;100956.34;5047739;28;20496;-89
2022/09/16 06:21:42;;;;;;;4.30;1.60;;;;;;;10.67;100.00;100961.53;5048211;28;20043;-88
2022/09/16 06:24:09;;;;;;;5.43;1.60;;;;;;;10.72;100.00;100965.28;5048164;28;21129;-88
2022/09/16 06:26:36;;;;;;;6.37;1.80;;;;;;;10.74;100.00;100956.94;5049687;28;20384;-89
2022/09/16 06:29:02;;;;;;;4.80;1.80;;;;;;;10.72;100.00;100962.56;5048633;28;20041;-88
2022/09/16 06:31:28;;;;;;;6.23;2.10;;;;;;;10.78;100.00;100967.16;5029538;28;20045;-89
2022/09/16 06:33:54;;;;;;;6.10;2.10;;;;;;;10.83;100.00;100968.41;5048749;28;20123;-89
2022/09/16 06:36:22;;;;;;;5.03;2.17;;;;;;;10.85;100.00;100967.13;5037319;28;20032;-89
2022/09/16 06:38:48;;;;;;;6.30;2.40;;;;;;;10.88;100.00;100972.16;5049302;28;20046;-89
2022/09/16 06:41:15;;;;;;;7.90;2.53;;;;;;;10.93;100.00;100980.50;5047821;28;20033;-89
2022/09/16 06:43:42;;;;;;;5.73;2.50;;;;;;;10.97;100.00;100986.31;5047897;28;20534;-90
2022/09/16 06:46:14;;;;;;;7.93;2.63;;;;;;;11.01;100.00;100982.13;5047298;28;20087;-88
2022/09/16 06:48:41;;;;;;;10.87;3.57;;;;;;;11.05;100.00;100972.53;5048626;28;20043;-90
2022/09/16 06:51:10;;;;;;;8.00;2.60;;;;;;;11.09;100.00;100971.06;5047084;28;20041;-88
2022/09/16 06:53:35;;;;;;;7.27;2.70;;;;;;;11.10;100.00;100969.19;5036006;28;20070;-90
2022/09/16 06:56:03;;;;;;;5.60;2.80;;;;;;;11.18;100.00;100963.53;5046901;28;20380;-90
2022/09/16 06:58:32;;;;;;;7.47;2.87;;;;;;;11.26;100.00;100959.75;5047680;28;20116;-88
2022/09/16 07:00:57;;;;;;;5.93;2.50;;;;;;;11.40;100.00;100974.13;5047578;28;20045;-89
2022/09/16 07:03:22;;;;;;;6.23;2.70;;;;;;;11.48;100.00;100972.00;5048214;28;20614;-88
2022/09/16 07:06:00;;;;;;;5.83;2.30;;;;;;;11.60;100.00;100974.88;5046946;28;20037;-88
2022/09/16 07:08:28;;;;;;;6.37;2.37;;;;;;;11.74;100.00;100974.81;5048644;28;20041;-90
2022/09/16 07:11:00;;;;;;;6.87;2.00;;;;;;;11.78;100.00;100966.00;5046873;28;21425;-88
2022/09/16 07:13:26;;;;;;;3.83;1.90;;;;;;;11.81;100.00;100970.16;5048023;28;20037;-91
2022/09/16 07:15:51;;;;;;;5.33;2.30;;;;;;;11.96;100.00;100972.63;5046978;28;20502;-92
2022/09/16 07:18:17;;;;;;;6.07;2.17;;;;;;;11.98;100.00;100967.78;5047703;28;20028;-89
2022/09/16 07:20:42;;;;;;;6.90;1.97;;;;;;;12.07;100.00;100982.78;5046213;28;20032;-91
2022/09/16 07:23:08;;;;;;;6.50;2.03;;;;;;;12.19;100.00;100976.69;5048131;28;20040;-90
2022/09/16 07:25:34;;;;;;;4.37;1.83;;;;;;;12.20;100.00;100983.75;5027332;28;20051;-88
2022/09/16 07:27:59;;;;;;;4.13;1.93;;;;;;;12.29;100.00;100972.41;5047070;28;20024;-86
2022/09/16 07:30:25;;;;;;;7.13;2.17;;;;;;;12.42;100.00;100978.81;5045913;28;20040;-89
2022/09/16 07:32:50;;;;;;;5.93;2.10;;;;;;;12.49;100.00;100971.44;5049389;28;20570;-89
2022/09/16 07:35:16;;;;;;;4.70;2.07;;;;;;;12.52;99.86;100968.25;5047109;28;21350;-89
2022/09/16 07:37:41;;;;;;;7.17;2.10;;;;;;;12.63;99.09;100989.28;5054427;28;20040;-89
2022/09/16 07:40:07;;;;;;;3.80;2.10;;;;;;;12.75;99.12;100985.84;5031696;28;20031;-88
2022/09/16 07:42:32;;;;;;;5.70;2.30;;;;;;;12.94;99.14;100976.66;5054384;28;20323;-88
2022/09/16 07:44:58;;;;;;;5.10;1.57;;;;;;;12.94;96.57;100967.69;5053535;28;20146;-87
2022/09/16 07:47:23;;;;;;;3.63;1.70;;;;;;;13.07;96.22;100983.88;5054111;28;20045;-91
2022/09/16 07:49:54;;;;;;;4.83;1.83;;;;;;;13.04;96.02;100994.34;5054220;28;20040;-88
2022/09/16 07:52:20;;;;;;;5.70;1.90;;;;;;;12.84;95.84;100979.91;5053972;28;20127;-88
2022/09/16 07:54:45;;;;;;;5.43;1.97;;;;;;;12.85;96.51;100980.72;5053759;28;20058;-89
2022/09/16 07:57:10;;;;;;;4.50;1.70;;;;;;;12.76;96.01;100987.50;5054213;28;20886;-88
2022/09/16 07:59:36;;;;;;;4.90;1.77;;;;;;;12.89;96.13;100994.72;5053264;28;20037;-88
2022/09/16 08:02:02;;;;;;;5.97;2.17;;;;;;;13.00;97.24;100996.69;5053496;28;20100;-87
2022/09/16 08:04:27;;;;;;;4.80;1.90;;;;;;;13.06;96.19;100994.97;5054023;28;20025;-87
2022/09/16 08:06:52;;;;;;;5.60;1.83;;;;;;;13.21;95.49;101000.88;5072508;28;20020;-89
2022/09/16 08:09:18;;;;;;;6.53;1.93;;;;;;;13.25;94.76;100996.66;5066088;28;20067;-87
2022/09/16 08:11:43;;;;;;;5.90;1.93;;;;;;;13.21;94.43;100997.34;5075830;28;20039;-90
2022/09/16 08:14:08;;;;;;;3.40;1.53;;;;;;;13.41;94.81;100999.84;5063901;28;20135;-87
2022/09/16 08:16:34;;;;;;;4.00;1.60;;;;;;;13.59;95.11;101001.75;5073156;28;20032;-89
2022/09/16 08:18:59;;;;;;;4.90;1.80;;;;;;;13.67;94.29;101012.31;5062222;28;20483;-90
2022/09/16 08:21:28;;;;;;;7.17;1.80;;;;;;;13.78;93.08;101018.91;5067546;28;20473;-89
2022/09/16 08:23:54;;;;;;;6.27;2.20;;;;;;;13.85;90.94;101017.72;5072001;28;20115;-88
2022/09/16 08:26:21;;;;;;;6.27;1.80;;;;;;;14.10;91.58;101016.78;5050095;28;20037;-90
2022/09/16 08:28:50;;;;;;;5.37;1.60;;;;;;;14.21;88.67;101011.59;5028577;28;20104;-90
2022/09/16 08:31:17;;;;;;;4.23;1.47;;;;;;;14.44;89.25;101008.09;5049562;28;20163;-90
2022/09/16 08:33:43;;;;;;;4.03;1.73;;;;;;;14.64;87.69;101013.28;5050048;28;20125;-90
2022/09/16 08:36:18;;;;;;;4.77;1.60;;;;;;;14.87;84.94;101019.84;5048506;28;20033;-88
2022/09/16 08:38:45;;;;;;;5.33;1.70;;;;;;;14.92;84.53;101018.06;5049877;28;20127;-91
2022/09/16 08:41:32;;;;;;;5.00;1.30;;;;;;;15.15;84.86;101021.84;5048878;28;20060;-88
2022/09/16 08:44:21;;;;;;;5.27;1.77;;;;;;;15.40;83.52;101018.03;5049068;28;20090;-89
2022/09/16 08:46:54;;;;;;;5.40;1.40;;;;;;;15.35;80.05;101018.75;5048854;28;20043;-89
2022/09/16 08:49:40;;;;;;;4.13;1.33;;;;;;;15.65;80.33;101017.72;5049325;28;20069;-88
2022/09/16 08:52:22;;;;;;;6.10;1.57;;;;;;;15.62;80.51;101023.69;5048952;28;20890;-90
2022/09/16 08:54:56;;;;;;;4.90;1.23;;;;;;;15.45;79.73;101023.59;5049180;28;20514;-89
2022/09/16 08:57:26;;;;;;;4.20;1.42;;;;;;;15.58;79.81;101017.03;5049443;28;20470;-89
2022/09/16 08:59:56;;;;;;;5.67;1.20;;;;;;;15.72;79.79;101014.88;5049060;28;20024;-88
2022/09/16 09:02:49;;;;;;;4.93;1.47;;;;;;;15.89;79.22;101020.44;5028703;28;20123;-88
2022/09/16 09:05:24;;;;;;;4.88;1.30;;;;;;;15.96;76.78;101007.44;5049033;28;20139;-90
2022/09/16 09:07:56;;;;;;;3.07;1.30;;;;;;;16.07;76.47;101024.88;5048651;28;20035;-87
2022/09/16 09:10:30;;;;;;;6.00;1.53;;;;;;;16.22;76.10;101019.69;5049409;28;20474;-90
2022/09/16 09:13:11;;;;;;;4.82;1.55;;;;;;;16.24;76.20;101009.34;5049113;28;20070;-90
2022/09/16 09:15:57;;;;;;;4.30;1.25;;;;;;;16.35;74.14;101019.38;5046273;28;20439;-90
2022/09/16 09:18:42;;;;;;;6.13;1.40;;;;;;;16.28;71.38;101026.91;5050386;28;20124;-90
2022/09/16 09:21:26;;;;;;;3.40;1.10;;;;;;;16.26;73.80;101030.97;5048553;28;20577;-89
2022/09/16 09:23:59;;;;;;;6.30;1.20;;;;;;;16.24;71.43;101023.00;5048308;28;20067;-90
2022/09/16 09:26:37;;;;;;;5.22;1.52;;;;;;;16.12;73.26;101025.78;5047915;28;20657;-88
2022/09/16 09:29:39;;;;;;;3.67;1.30;;;;;;;16.08;72.73;101018.34;5048703;28;20143;-88
2022/09/16 09:32:36;;;;;;;6.90;1.20;;;;;;;15.96;73.70;101018.38;5048041;28;20903;-88
2022/09/16 09:35:13;;;;;;;8.17;1.27;;;;;;;15.45;71.77;101065.38;5047821;28;20032;-90
2022/09/16 09:37:53;;;;;;;3.30;0.60;;;;;;;14.85;69.62;101077.38;5048390;28;20206;-88
2022/09/16 09:40:37;;;;;;;4.87;0.70;;;;;;;13.66;71.88;101076.81;5059833;28;20084;-91
2022/09/16 09:43:13;;;;;;;3.47;0.50;;;;;;;12.94;77.52;101074.56;5063502;28;20024;-92
2022/09/16 09:46:04;;;;;;;2.23;0.67;;;;;;;12.38;82.10;101062.63;5069680;28;20083;-90
2022/09/16 09:48:36;;;;;;;3.57;0.73;;;;;;;11.93;83.20;101059.94;5037897;28;20035;-89
2022/09/16 09:51:12;;;;;;;3.17;0.80;;;;;;;11.77;87.77;101061.25;5047617;28;20115;-91
2022/09/16 09:53:45;;;;;;;3.13;0.50;;;;;;;11.69;88.56;101059.59;5040857;28;20380;-91
2022/09/16 09:56:13;;;;;;;3.67;0.95;;;;;;;11.47;89.85;101059.03;5047474;28;20116;-89
2022/09/16 09:58:57;;;;;;;4.03;0.80;;;;;;;11.40;90.18;101055.50;5047901;28;20036;-89
2022/09/16 10:01:23;;;;;;;5.45;0.88;;;;;;;11.20;90.25;101045.50;5047352;28;20489;-89
2022/09/16 10:03:52;;;;;;;2.17;0.70;;;;;;;11.15;92.52;101056.16;5047703;28;20614;-88
2022/09/16 10:06:25;;;;;;;4.90;1.13;;;;;;;11.08;93.29;101047.19;5052671;28;20107;-91
2022/09/16 10:08:53;;;;;;;3.50;0.87;;;;;;;10.99;93.96;101049.31;5057881;28;20887;-88
2022/09/16 10:11:21;;;;;;;3.27;1.10;;;;;;;10.82;95.82;101029.91;5049886;28;20036;-88
2022/09/16 10:13:58;;;;;;;4.53;0.83;;;;;;;10.92;95.41;101040.31;5047780;28;20119;-89
2022/09/16 10:16:33;;;;;;;4.97;1.30;;;;;;;10.83;94.26;101044.31;5048673;28;20045;-89
2022/09/16 10:19:05;;;;;;;5.93;1.30;;;;;;;10.81;96.95;101039.94;5050834;28;20129;-89
2022/09/16 10:22:10;;;;;;;3.43;0.97;;;;;;;10.93;97.57;101039.28;5051294;28;20118;-88
2022/09/16 10:24:38;;;;;;;6.75;1.10;;;;;;;10.86;97.00;101039.28;5019591;28;20070;-89
2022/09/16 10:27:34;;;;;;;5.73;1.57;;;;;;;10.80;98.90;101045.56;5028546;28;20094;-89
2022/09/16 10:30:10;;;;;;;7.17;1.37;;;;;;;10.74;98.01;101040.97;5050603;28;20032;-90
2022/09/16 10:32:47;;;;;;;4.03;1.03;;;;;;;10.82;99.18;101046.16;5050761;28;20309;-89
2022/09/16 10:35:22;;;;;;;4.83;1.50;;;;;;;10.87;100.00;101034.72;5050584;28;20039;-88
2022/09/16 10:38:11;;;;;;;5.20;1.23;;;;;;;11.19;100.00;101034.88;5050409;28;20025;-89
2022/09/16 10:40:38;;;;;;;4.83;1.33;;;;;;;11.58;100.00;101020.38;5040255;28;20045;-90
2022/09/16 10:43:12;;;;;;;4.77;1.30;;;;;;;11.77;99.26;101028.66;5051232;28;20040;-88
2022/09/16 10:45:44;;;;;;;3.28;1.17;;;;;;;12.18;100.00;101022.00;5049149;28;20664;-88
2022/09/16 10:48:13;;;;;;;4.60;1.43;;;;;;;12.44;97.49;101029.16;5050793;28;20047;-90
2022/09/16 10:50:38;;;;;;;6.97;1.60;;;;;;;12.76;98.33;101031.03;5050425;28;20024;-89
2022/09/16 10:53:21;;;;;;;3.00;1.07;;;;;;;13.09;94.92;101035.31;5030449;28;20055;-89
2022/09/16 10:55:56;;;;;;;4.80;1.20;;;;;;;13.36;94.44;101035.91;5048501;28;20086;-89
2022/09/16 10:58:22;;;;;;;3.47;1.00;;;;;;;13.67;92.30;101028.66;5051197;28;20039;-88
2022/09/16 11:00:57;;;;;;;3.90;1.23;;;;;;;13.88;89.39;101034.69;5050319;28;20116;-88
2022/09/16 11:03:40;;;;;;;4.07;1.27;;;;;;;14.01;88.59;101032.63;5051159;28;20392;-92
2022/09/16 11:06:24;;;;;;;5.77;1.40;;;;;;;14.28;90.38;101032.25;5050253;28;20413;-90
2022/09/16 11:09:08;;;;;;;3.22;1.20;;;;;;;14.69;86.88;101025.16;5056726;28;20048;-91
2022/09/16 11:12:01;;;;;;;3.90;1.17;;;;;;;14.84;84.41;101018.41;5064707;28;20055;-89
2022/09/16 11:14:38;;;;;;;4.70;1.40;;;;;;;14.95;81.58;101020.31;5072619;28;20124;-91
2022/09/16 11:17:28;;;;;;;3.53;1.03;;;;;;;14.75;81.06;101020.63;5049026;28;20086;-90
2022/09/16 11:20:02;;;;;;;2.20;0.90;;;;;;;14.64;80.34;101035.91;5050917;28;20032;-90
2022/09/16 11:22:39;;;;;;;;;;;;;;;14.92;81.86;101037.16;5051218;28;20036;-90
2022/09/16 11:25:32;;;;;;;2.73;1.20;;;;;;;14.61;82.98;101041.00;5051631;28;19924;-90
2022/09/16 11:28:39;;;;;;;4.97;1.20;;;;;;;14.52;81.89;101024.13;5035208;28;20041;-90
2022/09/16 11:31:25;;;;;;;4.20;1.17;;;;;;;14.45;81.99;101037.03;5016016;28;20051;-88
2022/09/16 11:34:19;;;;;;;4.87;1.10;;;;;;;14.37;79.90;101035.47;5050604;28;20685;-88
2022/09/16 11:37:31;;;;;;;6.03;1.20;;;;;;;14.24;82.11;101039.22;5050687;28;20033;-88
2022/09/16 11:40:15;;;;;;;5.10;1.20;;;;;;;14.18;80.16;101041.00;4989580;28;20065;-88
2022/09/16 11:42:47;;;;;;;3.40;1.20;;;;;;;14.21;79.93;101036.13;5049901;28;20123;-88